Arbor Hill, Iowa
Current Conditions -  °F | °C
As of 12:54 PM on Tuesday 27 Jan 2015 (Local Time) from KDSM Reporting Station
Few Clouds Few Clouds  
Wind Chill: 39°   Ceiling: Unl
Heat Index: 43°   Visibility: 10mi
Dew Point: 30°   Wind: 6mph
Humidity: 60%   Direction: 100°E
Pressure: 30.15"   Gusts: NA
Location:  41.5397°N, 94.299°W
Report Text: KDSM 271854Z 10005KT 10SM FEW020 FEW160 FEW250 06/M01 A3015 RMK AO2 SLP217 T00611011
Loading
Personal Weather Stations






























Interactive Weather Map New forecast layout! Learn more

10-Day Weather Forecast

Advertisements
Track Severe Weather on mobile